Time;durP1;ratioP1;P1;durP2;ratioP2;P2;SDS_P1;SDS_P2;PMS_P1;PMS_P2;Temp;Humidity;BMP_temperature;BMP_pressure;BME280_temperature;BME280_humidity;BME280_pressure;Samples;Min_cycle;Max_cycle;Signal;HPM_P1;HPM_P2
2023/03/25 00:00:12;;;;;;;4.43;0.90;;;10.30;99.90;;;;;;5054013;28;20100;-67
2023/03/25 00:02:37;;;;;;;3.15;0.60;;;10.30;99.90;;;;;;5054016;28;20028;-67
2023/03/25 00:05:04;;;;;;;3.77;0.77;;;10.30;99.90;;;;;;5036337;28;20013;-68
2023/03/25 00:07:30;;;;;;;2.58;0.70;;;10.30;99.90;;;;;;5054146;28;20382;-66
2023/03/25 00:09:55;;;;;;;3.73;0.80;;;10.30;99.90;;;;;;5036229;28;20527;-67
2023/03/25 00:12:21;;;;;;;3.87;0.43;;;10.20;99.90;;;;;;5053665;28;20020;-67
2023/03/25 00:14:53;;;;;;;3.77;0.80;;;10.20;99.90;;;;;;5054126;28;20025;-67
2023/03/25 00:17:20;;;;;;;3.70;0.70;;;10.10;99.90;;;;;;5054387;28;20024;-67
2023/03/25 00:19:49;;;;;;;2.88;0.50;;;10.10;99.90;;;;;;5059010;28;20031;-67
2023/03/25 00:22:15;;;;;;;6.10;0.82;;;10.20;99.90;;;;;;5057939;28;20535;-65
2023/03/25 00:24:41;;;;;;;;;;;10.10;99.90;;;;;;5036189;28;20398;-66
2023/03/25 00:27:06;;;;;;;2.90;0.60;;;10.10;99.90;;;;;;5053553;28;19905;-67
2023/03/25 00:29:32;;;;;;;5.90;0.73;;;10.10;99.90;;;;;;5068490;28;20056;-67
2023/03/25 00:31:57;;;;;;;4.72;1.25;;;10.00;99.90;;;;;;5073640;28;20496;-66
2023/03/25 00:34:23;;;;;;;2.83;0.60;;;10.10;99.90;;;;;;5073211;28;20472;-66
2023/03/25 00:36:48;;;;;;;2.73;0.70;;;10.00;99.90;;;;;;5059316;28;20058;-65
2023/03/25 00:39:14;;;;;;;3.83;0.80;;;10.00;99.90;;;;;;5053701;28;20047;-66
2023/03/25 00:41:42;;;;;;;5.60;2.30;;;10.10;99.90;;;;;;5039658;28;20013;-66
2023/03/25 00:44:11;;;;;;;2.33;0.85;;;10.10;99.90;;;;;;5073462;28;20021;-66
2023/03/25 00:46:37;;;;;;;4.40;0.93;;;10.10;99.90;;;;;;5074187;28;20516;-67
2023/03/25 00:49:03;;;;;;;4.03;1.00;;;10.10;99.90;;;;;;5074845;28;20044;-66
2023/03/25 00:51:30;;;;;;;4.38;0.80;;;10.20;99.90;;;;;;5054988;28;20033;-66
2023/03/25 00:53:59;;;;;;;8.00;1.10;;;10.20;99.90;;;;;;5053006;28;20024;-66
2023/03/25 00:56:25;;;;;;;2.72;0.80;;;10.30;99.90;;;;;;5053352;28;20017;-66
2023/03/25 00:58:51;;;;;;;4.65;0.77;;;10.30;99.90;;;;;;5054785;28;20024;-66
2023/03/25 01:01:22;;;;;;;4.60;0.68;;;10.30;99.90;;;;;;5073370;28;20028;-66
2023/03/25 01:03:56;;;;;;;2.95;0.93;;;10.30;99.90;;;;;;5053600;28;20025;-66
2023/03/25 01:06:23;;;;;;;4.65;0.85;;;10.30;99.90;;;;;;5035345;28;20501;-66
2023/03/25 01:08:51;;;;;;;4.13;0.93;;;10.30;99.90;;;;;;5048843;28;20021;-66
2023/03/25 01:11:20;;;;;;;2.30;0.80;;;10.30;99.90;;;;;;5053014;28;20025;-65
2023/03/25 01:13:45;;;;;;;6.15;1.58;;;10.30;99.90;;;;;;5057342;28;20016;-65
2023/03/25 01:16:11;;;;;;;6.07;0.90;;;10.30;99.90;;;;;;5073004;28;20033;-65
2023/03/25 01:18:37;;;;;;;2.42;0.82;;;10.20;99.90;;;;;;5072899;28;20027;-66
2023/03/25 01:21:07;;;;;;;3.42;0.80;;;10.20;99.90;;;;;;5073077;28;20036;-67
2023/03/25 01:23:33;;;;;;;6.22;0.88;;;10.10;99.90;;;;;;5072667;28;20035;-66
2023/03/25 01:25:58;;;;;;;4.03;1.20;;;10.20;99.90;;;;;;5054946;28;20024;-66
2023/03/25 01:28:24;;;;;;;1.63;0.60;;;10.30;99.90;;;;;;5052217;28;20040;-66
2023/03/25 01:30:49;;;;;;;4.53;0.73;;;10.40;99.90;;;;;;5054057;28;20033;-66
2023/03/25 01:33:15;;;;;;;3.30;1.07;;;10.40;99.90;;;;;;5065857;28;20036;-66
2023/03/25 01:35:41;;;;;;;3.37;0.73;;;10.40;99.90;;;;;;5074713;28;20032;-67
2023/03/25 01:38:07;;;;;;;1.65;0.47;;;10.40;99.90;;;;;;5073776;28;20024;-67
2023/03/25 01:40:32;;;;;;;2.37;0.50;;;10.20;99.90;;;;;;5074207;28;20032;-66
2023/03/25 01:42:58;;;;;;;5.07;0.87;;;9.80;99.90;;;;;;5076852;28;20475;-66
2023/03/25 01:45:31;;;;;;;2.33;0.65;;;9.50;99.90;;;;;;5066244;28;20021;-66
2023/03/25 01:48:23;;;;;;;4.20;0.60;;;9.20;99.90;;;;;;5040791;28;20037;-66
2023/03/25 01:50:57;;;;;;;3.08;0.50;;;9.10;99.90;;;;;;5071210;28;20099;-67
2023/03/25 01:53:25;;;;;;;2.80;0.60;;;8.90;99.90;;;;;;5060974;28;20632;-67
2023/03/25 01:55:52;;;;;;;3.33;0.60;;;8.80;99.90;;;;;;5078191;28;20071;-67
2023/03/25 01:58:19;;;;;;;1.27;0.50;;;8.80;99.90;;;;;;5078160;28;20028;-66
2023/03/25 02:00:49;;;;;;;6.43;0.85;;;8.90;99.90;;;;;;5074291;28;20017;-67
2023/03/25 02:03:16;;;;;;;2.72;0.50;;;8.90;99.90;;;;;;5058250;28;20086;-66
2023/03/25 02:05:52;;;;;;;1.98;0.50;;;8.90;99.90;;;;;;5058102;28;20021;-67
2023/03/25 02:08:19;;;;;;;2.03;0.50;;;8.90;99.90;;;;;;5065940;28;20056;-65
2023/03/25 02:10:46;;;;;;;1.45;0.40;;;8.80;99.90;;;;;;5076268;28;20025;-67
2023/03/25 02:13:12;;;;;;;2.03;0.40;;;8.80;99.90;;;;;;5076020;28;20078;-66
2023/03/25 02:15:51;;;;;;;1.77;0.40;;;8.80;99.90;;;;;;5076290;28;20017;-65
2023/03/25 02:18:26;;;;;;;2.80;0.55;;;8.80;99.90;;;;;;5075693;28;20041;-65
2023/03/25 02:21:34;;;;;;;1.63;0.40;;;8.80;99.90;;;;;;5075911;28;20031;-66
2023/03/25 02:24:52;;;;;;;2.70;0.70;;;8.80;99.90;;;;;;5052512;28;20049;-66
2023/03/25 02:27:57;;;;;;;0.28;0.28;;;8.80;99.90;;;;;;4995102;28;20034;-66
2023/03/25 02:30:59;;;;;;;1.35;0.35;;;8.90;99.90;;;;;;5001935;28;20076;-67
2023/03/25 02:33:46;;;;;;;1.23;0.32;;;8.80;99.90;;;;;;5009497;28;20045;-66
2023/03/25 02:36:36;;;;;;;1.98;0.40;;;8.80;99.90;;;;;;4978252;28;20386;-66
2023/03/25 02:39:04;;;;;;;1.92;0.55;;;8.70;99.90;;;;;;4989598;28;20438;-67
2023/03/25 02:41:36;;;;;;;2.95;0.40;;;8.80;99.90;;;;;;5013852;28;20026;-65
2023/03/25 02:44:13;;;;;;;0.70;0.30;;;8.70;99.90;;;;;;5013955;28;20056;-66
2023/03/25 02:46:47;;;;;;;2.08;0.30;;;8.70;99.90;;;;;;5013886;28;20033;-66
2023/03/25 02:49:23;;;;;;;1.25;0.30;;;8.70;99.90;;;;;;5012999;28;20041;-66
2023/03/25 02:51:55;;;;;;;1.45;0.60;;;8.80;99.90;;;;;;5013633;28;20503;-66
2023/03/25 02:54:24;;;;;;;0.88;0.40;;;8.80;99.90;;;;;;4996691;28;20053;-66
2023/03/25 02:56:56;;;;;;;0.98;0.38;;;8.80;99.90;;;;;;5013895;28;20064;-66
2023/03/25 02:59:23;;;;;;;0.65;0.35;;;8.80;99.90;;;;;;4993412;28;20085;-67
2023/03/25 03:01:49;;;;;;;0.60;0.30;;;8.80;99.90;;;;;;4993728;28;20022;-66
2023/03/25 03:04:15;;;;;;;1.85;0.38;;;8.80;99.90;;;;;;5048695;28;20045;-66
2023/03/25 03:06:42;;;;;;;2.22;0.52;;;8.70;99.90;;;;;;5037166;28;20036;-67
2023/03/25 03:09:21;;;;;;;1.73;0.65;;;8.60;99.90;;;;;;5055050;28;20029;-66
2023/03/25 03:12:21;;;;;;;0.73;0.47;;;8.60;99.90;;;;;;5055154;28;20104;-66
2023/03/25 03:15:09;;;;;;;2.88;0.47;;;8.60;99.90;;;;;;5054984;28;20021;-66
2023/03/25 03:18:03;;;;;;;2.25;0.70;;;8.70;99.90;;;;;;5036945;28;20048;-66
2023/03/25 03:20:59;;;;;;;0.93;0.47;;;8.60;99.90;;;;;;5037243;28;20021;-66
2023/03/25 03:23:35;;;;;;;2.47;0.50;;;8.70;99.90;;;;;;5054898;28;20114;-66
2023/03/25 03:26:11;;;;;;;4.20;0.60;;;8.70;99.90;;;;;;5055084;28;20029;-65
2023/03/25 03:29:11;;;;;;;2.22;0.50;;;8.70;99.90;;;;;;5061742;28;20030;-65
2023/03/25 03:32:01;;;;;;;2.72;0.57;;;8.80;99.90;;;;;;5074628;28;20102;-66
2023/03/25 03:34:49;;;;;;;2.45;0.40;;;8.80;99.90;;;;;;5056464;28;20029;-66
2023/03/25 03:37:20;;;;;;;0.40;0.25;;;8.80;99.90;;;;;;5073720;28;20397;-66
2023/03/25 03:39:48;;;;;;;2.10;0.50;;;8.80;99.90;;;;;;5056661;28;20021;-66
2023/03/25 03:42:27;;;;;;;3.03;0.43;;;8.90;99.90;;;;;;5074403;28;20025;-66
2023/03/25 03:44:59;;;;;;;2.60;0.98;;;8.90;99.90;;;;;;5074342;28;20103;-67
2023/03/25 03:47:30;;;;;;;3.17;0.60;;;8.80;99.90;;;;;;5074770;28;20075;-67
2023/03/25 03:49:59;;;;;;;0.45;0.28;;;8.90;99.90;;;;;;5074274;28;20074;-66
2023/03/25 03:52:36;;;;;;;1.55;0.40;;;8.90;99.90;;;;;;5074520;28;20024;-66
2023/03/25 03:55:05;;;;;;;;;;;8.90;99.90;;;;;;5074687;28;20095;-66
2023/03/25 03:57:42;;;;;;;1.92;0.40;;;9.00;99.90;;;;;;5074185;28;20003;-66
2023/03/25 04:00:08;;;;;;;;;;;8.90;99.90;;;;;;5036631;28;20021;-66
2023/03/25 04:03:13;;;;;;;1.58;0.32;;;9.00;99.90;;;;;;5036367;28;20304;-66
2023/03/25 04:05:43;;;;;;;1.73;0.40;;;9.00;99.90;;;;;;5012738;28;20021;-66
2023/03/25 04:08:17;;;;;;;3.00;0.50;;;9.10;99.90;;;;;;5012099;28;20180;-66
2023/03/25 04:10:57;;;;;;;2.75;0.47;;;9.00;99.90;;;;;;5012144;28;20029;-66
2023/03/25 04:13:32;;;;;;;3.10;0.68;;;9.00;99.90;;;;;;5012284;28;20411;-67
2023/03/25 04:15:59;;;;;;;2.80;0.70;;;9.10;99.90;;;;;;5012596;28;20113;-66
2023/03/25 04:18:27;;;;;;;3.15;0.63;;;9.00;99.90;;;;;;5012349;28;20426;-66
2023/03/25 04:20:53;;;;;;;3.53;0.55;;;9.10;99.90;;;;;;5012410;28;20151;-67
2023/03/25 04:23:20;;;;;;;1.17;0.50;;;9.10;99.90;;;;;;5012834;28;20033;-66
2023/03/25 04:25:48;;;;;;;;;;;9.10;99.90;;;;;;4996153;28;20033;-66
2023/03/25 04:28:16;;;;;;;2.90;0.70;;;9.20;99.90;;;;;;5011873;28;19913;-67
2023/03/25 04:30:44;;;;;;;5.15;0.60;;;9.30;99.90;;;;;;5012049;28;20025;-66
2023/03/25 04:33:10;;;;;;;5.25;0.60;;;9.30;99.90;;;;;;5011977;28;20057;-66
2023/03/25 04:35:37;;;;;;;3.13;0.75;;;9.40;99.90;;;;;;5012059;28;20022;-66
2023/03/25 04:38:04;;;;;;;3.58;0.60;;;9.40;99.90;;;;;;4995476;28;20040;-66
2023/03/25 04:40:30;;;;;;;5.38;0.70;;;9.40;99.90;;;;;;5049399;28;20029;-66
2023/03/25 04:42:56;;;;;;;4.40;0.85;;;9.40;99.90;;;;;;5035355;28;20120;-66
2023/03/25 04:45:24;;;;;;;3.85;0.70;;;9.50;99.90;;;;;;5053301;28;20164;-66
2023/03/25 04:47:52;;;;;;;4.50;0.40;;;9.40;99.90;;;;;;5053168;28;20056;-66
2023/03/25 04:50:29;;;;;;;2.30;0.55;;;9.50;99.90;;;;;;5053269;28;20104;-66
2023/03/25 04:52:59;;;;;;;3.47;0.70;;;9.50;99.90;;;;;;5062085;28;20025;-67
2023/03/25 04:55:25;;;;;;;4.70;0.82;;;9.60;99.90;;;;;;5037997;28;20075;-66
2023/03/25 04:57:52;;;;;;;3.72;0.80;;;9.50;99.90;;;;;;5054783;28;20036;-67
2023/03/25 05:00:24;;;;;;;5.22;0.73;;;9.50;99.90;;;;;;5054703;28;20039;-67
2023/03/25 05:02:52;;;;;;;6.30;1.27;;;9.50;99.90;;;;;;5070182;28;20028;-66
2023/03/25 05:05:20;;;;;;;3.25;0.93;;;9.50;99.90;;;;;;5036721;28;20017;-66
2023/03/25 05:07:48;;;;;;;2.83;1.00;;;9.50;99.90;;;;;;5036798;28;20021;-66
2023/03/25 05:10:15;;;;;;;2.80;0.60;;;9.50;99.90;;;;;;5037118;28;20021;-66
2023/03/25 05:12:41;;;;;;;4.38;0.75;;;9.50;99.90;;;;;;5055462;28;20420;-66
2023/03/25 05:15:08;;;;;;;6.30;1.30;;;9.50;99.90;;;;;;5053936;28;20021;-66
2023/03/25 05:17:34;;;;;;;3.80;0.80;;;9.60;99.90;;;;;;5053674;28;20110;-66
2023/03/25 05:19:59;;;;;;;10.23;1.23;;;9.60;99.90;;;;;;5068767;28;20176;-66
2023/03/25 05:22:25;;;;;;;5.10;1.07;;;9.60;99.90;;;;;;5075292;28;20205;-66
2023/03/25 05:24:52;;;;;;;7.18;1.17;;;9.50;99.90;;;;;;5060747;28;20033;-66
2023/03/25 05:27:21;;;;;;;;;;;9.60;99.90;;;;;;5061518;28;20025;-67
2023/03/25 05:29:46;;;;;;;4.32;1.10;;;9.60;99.90;;;;;;5061272;28;20288;-68
2023/03/25 05:32:16;;;;;;;6.40;1.00;;;9.60;99.90;;;;;;5046195;28;20029;-67
2023/03/25 05:34:48;;;;;;;10.18;1.90;;;9.60;99.90;;;;;;5061023;28;20291;-68
2023/03/25 05:37:13;;;;;;;7.50;1.77;;;9.60;99.90;;;;;;5060668;28;20024;-67
2023/03/25 05:39:39;;;;;;;8.73;1.67;;;9.70;99.90;;;;;;5060792;28;20035;-68
2023/03/25 05:42:05;;;;;;;7.38;1.42;;;9.80;99.90;;;;;;5060897;28;20021;-67
2023/03/25 05:44:30;;;;;;;4.80;0.95;;;9.80;99.90;;;;;;5042434;28;20102;-68
2023/03/25 05:47:00;;;;;;;9.77;1.03;;;9.80;99.90;;;;;;5058565;28;20036;-67
2023/03/25 05:49:26;;;;;;;7.60;1.10;;;9.80;99.90;;;;;;5039676;28;20124;-67
2023/03/25 05:51:53;;;;;;;5.10;0.85;;;9.80;99.90;;;;;;5057374;28;20029;-67
2023/03/25 05:54:18;;;;;;;;;;;9.90;99.90;;;;;;5057515;28;20393;-67
2023/03/25 05:56:44;;;;;;;4.68;0.90;;;9.80;99.90;;;;;;5057209;28;19904;-67
2023/03/25 05:59:10;;;;;;;4.65;1.02;;;9.80;99.90;;;;;;5057397;28;20017;-68
2023/03/25 06:01:42;;;;;;;8.20;1.20;;;9.80;99.90;;;;;;5057720;28;20025;-67
2023/03/25 06:04:08;;;;;;;6.57;1.02;;;9.80;99.90;;;;;;5057152;28;20021;-67
2023/03/25 06:06:34;;;;;;;5.18;1.38;;;9.80;99.90;;;;;;5057006;28;20017;-67
2023/03/25 06:09:01;;;;;;;5.25;1.25;;;9.90;99.90;;;;;;5056367;28;20021;-66
2023/03/25 06:11:26;;;;;;;5.60;1.25;;;9.90;99.90;;;;;;5056160;28;20029;-67
2023/03/25 06:13:52;;;;;;;6.07;0.83;;;9.90;99.90;;;;;;5055823;28;20094;-67
2023/03/25 06:16:20;;;;;;;8.40;1.53;;;9.80;99.90;;;;;;5056162;28;20025;-67
2023/03/25 06:18:54;;;;;;;4.55;1.60;;;9.80;99.90;;;;;;5056123;28;20017;-69
2023/03/25 06:21:25;;;;;;;6.78;1.00;;;9.80;99.90;;;;;;5038143;28;20102;-67
2023/03/25 06:23:52;;;;;;;5.28;1.30;;;9.90;99.90;;;;;;5056258;28;20389;-67
2023/03/25 06:26:19;;;;;;;4.22;0.98;;;9.90;99.90;;;;;;5038053;28;20021;-67
2023/03/25 06:28:45;;;;;;;5.82;1.00;;;9.90;99.90;;;;;;5055479;28;20031;-68
2023/03/25 06:31:25;;;;;;;2.88;0.88;;;9.90;99.90;;;;;;5055061;28;20028;-67
2023/03/25 06:33:52;;;;;;;5.35;1.08;;;9.90;99.90;;;;;;5043811;28;20028;-67
2023/03/25 06:36:19;;;;;;;4.38;0.80;;;9.90;99.90;;;;;;5075877;28;20017;-66
2023/03/25 06:38:49;;;;;;;7.47;1.33;;;10.00;99.90;;;;;;5074926;28;20027;-66
2023/03/25 06:41:19;;;;;;;3.72;0.85;;;10.10;99.90;;;;;;5075915;28;20031;-67
2023/03/25 06:43:45;;;;;;;2.40;0.70;;;10.10;99.90;;;;;;5075560;28;20117;-67
2023/03/25 06:46:11;;;;;;;;;;;10.10;99.90;;;;;;5060018;28;20025;-66
2023/03/25 06:48:36;;;;;;;2.00;0.70;;;10.10;99.90;;;;;;5055467;28;20031;-68
2023/03/25 06:51:02;;;;;;;5.43;0.80;;;10.10;99.90;;;;;;5037768;28;20068;-66
2023/03/25 06:53:28;;;;;;;4.43;0.60;;;10.10;99.90;;;;;;5038530;28;20047;-66
2023/03/25 06:55:56;;;;;;;5.07;0.93;;;10.10;99.90;;;;;;5075857;28;20412;-67
2023/03/25 06:58:22;;;;;;;4.50;0.90;;;10.20;99.90;;;;;;5074904;28;20567;-67
2023/03/25 07:00:55;;;;;;;6.40;1.10;;;10.30;99.90;;;;;;5058027;28;20037;-67
2023/03/25 07:03:20;;;;;;;9.90;1.45;;;10.40;99.90;;;;;;5075009;28;20364;-67
2023/03/25 07:05:49;;;;;;;4.93;0.60;;;10.50;99.90;;;;;;5055827;28;20108;-67
2023/03/25 07:08:15;;;;;;;4.18;0.90;;;10.40;99.90;;;;;;5054988;28;20025;-67
2023/03/25 07:10:40;;;;;;;3.85;0.80;;;10.40;99.90;;;;;;5055235;28;20020;-67
2023/03/25 07:13:08;;;;;;;4.63;0.80;;;10.50;99.90;;;;;;5054861;28;20086;-67
2023/03/25 07:15:34;;;;;;;2.50;1.08;;;10.40;99.90;;;;;;5055080;28;20098;-67
2023/03/25 07:18:00;;;;;;;6.85;0.90;;;10.30;99.90;;;;;;5055458;28;20401;-65
2023/03/25 07:20:25;;;;;;;2.17;0.73;;;10.30;99.90;;;;;;5055058;28;20025;-66
2023/03/25 07:22:53;;;;;;;4.43;1.00;;;10.40;99.90;;;;;;5055469;28;20024;-66
2023/03/25 07:25:18;;;;;;;5.47;0.80;;;10.30;99.90;;;;;;5055263;28;20021;-66
2023/03/25 07:27:44;;;;;;;4.37;0.70;;;10.50;99.90;;;;;;5058559;28;20106;-67
2023/03/25 07:30:10;;;;;;;2.43;0.60;;;10.60;99.90;;;;;;5070365;28;20533;-67
2023/03/25 07:32:35;;;;;;;3.42;0.65;;;10.60;99.90;;;;;;5079638;28;20465;-67
2023/03/25 07:35:02;;;;;;;3.50;0.80;;;10.60;99.90;;;;;;5064519;28;20037;-67
2023/03/25 07:37:28;;;;;;;3.63;0.90;;;10.70;99.90;;;;;;5054704;28;20071;-67
2023/03/25 07:39:53;;;;;;;3.70;0.73;;;10.80;99.90;;;;;;5063308;28;20029;-66
2023/03/25 07:42:19;;;;;;;3.93;0.80;;;10.70;99.90;;;;;;5074677;28;20016;-66
2023/03/25 07:44:44;;;;;;;3.63;0.63;;;10.80;99.90;;;;;;5073118;28;20504;-66
2023/03/25 07:47:10;;;;;;;6.20;1.30;;;10.90;99.90;;;;;;5074267;28;20435;-68
2023/03/25 07:49:35;;;;;;;6.33;0.97;;;10.80;99.90;;;;;;5068370;28;20033;-67
2023/03/25 07:52:01;;;;;;;2.20;0.70;;;11.00;99.90;;;;;;5054628;28;20029;-67
2023/03/25 07:54:27;;;;;;;3.77;0.80;;;11.10;99.90;;;;;;5037704;28;20035;-67
2023/03/25 07:56:54;;;;;;;2.92;0.60;;;11.30;99.90;;;;;;5055641;28;20353;-68
2023/03/25 07:59:19;;;;;;;3.75;1.23;;;11.20;99.90;;;;;;5057267;28;20035;-67
2023/03/25 08:01:45;;;;;;;3.00;0.80;;;11.20;99.90;;;;;;5074461;28;20099;-66
2023/03/25 08:04:12;;;;;;;2.23;0.60;;;11.10;99.90;;;;;;5073215;28;20025;-66
2023/03/25 08:06:38;;;;;;;4.35;0.80;;;11.10;99.90;;;;;;5056776;28;20024;-67
2023/03/25 08:09:03;;;;;;;3.25;1.10;;;11.40;99.90;;;;;;5074349;28;20111;-66
2023/03/25 08:11:29;;;;;;;2.07;0.73;;;11.60;99.90;;;;;;5073477;28;20056;-66
2023/03/25 08:13:55;;;;;;;4.45;0.70;;;11.80;99.90;;;;;;5074418;28;20485;-66
2023/03/25 08:16:20;;;;;;;1.87;0.50;;;11.40;99.90;;;;;;5073707;28;20525;-67
2023/03/25 08:18:51;;;;;;;2.33;0.53;;;11.50;99.90;;;;;;5074255;28;20035;-67
2023/03/25 08:21:23;;;;;;;1.88;0.57;;;11.30;99.90;;;;;;5038220;28;20636;-67
2023/03/25 08:23:51;;;;;;;3.75;0.70;;;10.70;99.90;;;;;;5053978;28;20335;-67
2023/03/25 08:26:16;;;;;;;2.97;0.65;;;10.20;99.90;;;;;;5053918;28;20025;-66
2023/03/25 08:28:42;;;;;;;1.43;0.60;;;10.10;99.90;;;;;;5035531;28;20025;-68
2023/03/25 08:31:08;;;;;;;2.77;0.70;;;10.10;99.90;;;;;;5069867;28;20029;-66
2023/03/25 08:33:39;;;;;;;3.38;0.50;;;10.10;99.90;;;;;;5055541;28;20107;-66
2023/03/25 08:36:08;;;;;;;3.00;0.52;;;10.10;99.90;;;;;;5059425;28;20017;-66
2023/03/25 08:38:34;;;;;;;3.33;0.60;;;10.30;99.90;;;;;;5053983;28;20025;-67
2023/03/25 08:40:59;;;;;;;1.73;0.50;;;10.10;99.90;;;;;;5053652;28;20025;-66
2023/03/25 08:43:25;;;;;;;2.83;0.40;;;10.10;99.90;;;;;;5035435;28;20424;-66
2023/03/25 08:45:51;;;;;;;3.53;0.68;;;10.40;99.90;;;;;;5063686;28;20111;-67
2023/03/25 08:48:17;;;;;;;3.67;0.55;;;10.70;99.90;;;;;;5073331;28;20090;-68
2023/03/25 08:50:43;;;;;;;2.13;0.40;;;10.90;99.90;;;;;;5073277;28;20020;-66
2023/03/25 08:53:08;;;;;;;2.53;0.70;;;11.50;99.90;;;;;;5073017;28;20032;-67
2023/03/25 08:55:36;;;;;;;1.65;0.57;;;13.50;99.90;;;;;;5073251;28;20028;-66
2023/03/25 08:58:03;;;;;;;2.33;0.50;;;13.00;99.90;;;;;;5073072;28;20070;-66
2023/03/25 09:00:29;;;;;;;1.50;0.63;;;13.00;99.90;;;;;;5055115;28;20033;-67
2023/03/25 09:02:57;;;;;;;1.30;0.90;;;12.80;99.90;;;;;;5073272;28;20050;-68
2023/03/25 09:05:23;;;;;;;0.85;0.47;;;12.50;99.90;;;;;;5055396;28;20032;-68
2023/03/25 09:07:48;;;;;;;1.57;0.70;;;12.20;99.90;;;;;;5073040;28;20033;-67
2023/03/25 09:10:14;;;;;;;2.13;0.50;;;12.00;99.90;;;;;;5073337;28;20017;-68
2023/03/25 09:12:40;;;;;;;1.77;0.70;;;11.60;99.90;;;;;;5072942;28;20021;-67
2023/03/25 09:15:06;;;;;;;1.55;0.73;;;12.00;99.90;;;;;;5068583;28;20481;-66
2023/03/25 09:17:32;;;;;;;1.13;0.55;;;12.10;99.90;;;;;;5063602;28;20038;-66
2023/03/25 09:19:57;;;;;;;3.70;0.80;;;12.20;99.90;;;;;;5074314;28;20029;-66
2023/03/25 09:22:23;;;;;;;3.03;0.90;;;12.00;99.90;;;;;;5074415;28;20127;-67
2023/03/25 09:24:49;;;;;;;4.37;0.80;;;11.30;99.90;;;;;;5073420;28;20039;-65
2023/03/25 09:27:14;;;;;;;2.70;0.60;;;10.60;99.90;;;;;;5073279;28;20670;-66
2023/03/25 09:29:40;;;;;;;4.10;0.80;;;10.20;99.90;;;;;;5058764;28;20030;-65
2023/03/25 09:32:06;;;;;;;1.50;0.60;;;10.10;99.90;;;;;;5068702;28;20090;-66
2023/03/25 09:34:31;;;;;;;6.60;0.80;;;10.20;99.90;;;;;;5072605;28;20074;-68
2023/03/25 09:36:57;;;;;;;3.03;1.00;;;10.20;99.90;;;;;;5072174;28;20028;-67
2023/03/25 09:39:23;;;;;;;8.03;1.53;;;10.10;99.90;;;;;;5054840;28;20032;-68
2023/03/25 09:42:05;;;;;;;2.70;0.68;;;10.30;99.90;;;;;;5054588;28;20263;-68
2023/03/25 09:45:15;;;;;;;7.40;1.10;;;11.50;99.90;;;;;;5055203;28;20029;-70
2023/03/25 09:47:56;;;;;;;1.15;0.50;;;11.30;99.90;;;;;;4994269;28;20030;-70
2023/03/25 09:50:23;;;;;;;2.03;0.80;;;13.00;99.90;;;;;;5010927;28;20414;-68
2023/03/25 09:53:08;;;;;;;3.22;0.57;;;15.50;99.90;;;;;;5011296;28;20576;-70
2023/03/25 09:55:40;;;;;;;2.55;0.55;;;17.10;99.90;;;;;;5010959;28;20038;-69
2023/03/25 09:58:36;;;;;;;1.15;0.60;;;18.00;99.90;;;;;;5003643;28;20463;-70
2023/03/25 10:01:36;;;;;;;1.50;0.60;;;18.60;99.90;;;;;;5005348;28;20506;-70
2023/03/25 10:04:39;;;;;;;2.65;0.70;;;20.40;99.30;;;;;;4959313;28;20069;-68
2023/03/25 10:07:22;;;;;;;1.67;0.68;;;21.40;96.60;;;;;;4977301;28;20073;-68
2023/03/25 10:10:21;;;;;;;2.38;0.70;;;22.10;93.60;;;;;;4998021;28;20527;-69
2023/03/25 10:12:58;;;;;;;2.58;0.88;;;21.70;93.10;;;;;;4981301;28;20066;-69
2023/03/25 10:15:39;;;;;;;3.33;0.80;;;22.30;92.90;;;;;;4997501;28;20098;-68
2023/03/25 10:18:32;;;;;;;3.28;1.00;;;22.60;91.30;;;;;;5018882;28;20037;-68
2023/03/25 10:21:09;;;;;;;1.73;0.90;;;23.10;90.70;;;;;;5056981;28;20021;-68
2023/03/25 10:23:40;;;;;;;2.85;0.80;;;20.80;91.60;;;;;;5057313;28;20103;-68
2023/03/25 10:26:18;;;;;;;1.77;0.70;;;18.30;95.60;;;;;;5056026;28;20017;-68
2023/03/25 10:28:54;;;;;;;1.50;0.63;;;16.60;98.30;;;;;;5038485;28;20024;-68
2023/03/25 10:31:24;;;;;;;4.88;0.88;;;15.40;99.90;;;;;;5055951;28;20025;-68
2023/03/25 10:33:55;;;;;;;3.90;1.00;;;15.10;99.90;;;;;;5056358;28;20017;-68
2023/03/25 10:36:32;;;;;;;2.90;0.90;;;16.10;99.90;;;;;;5055883;28;20036;-68
2023/03/25 10:39:00;;;;;;;1.40;0.50;;;15.90;99.90;;;;;;5056042;28;20021;-67
2023/03/25 10:41:34;;;;;;;2.97;0.77;;;14.90;99.90;;;;;;5037657;28;20413;-67
2023/03/25 10:44:00;;;;;;;2.63;0.68;;;15.40;99.90;;;;;;5071168;28;20120;-67
2023/03/25 10:46:55;;;;;;;3.00;0.82;;;15.00;99.90;;;;;;5055696;28;20509;-68
2023/03/25 10:49:24;;;;;;;4.93;1.00;;;14.20;99.90;;;;;;5014372;28;20410;-68
2023/03/25 10:51:56;;;;;;;3.63;0.90;;;13.70;99.90;;;;;;5018415;28;20130;-68
2023/03/25 10:54:26;;;;;;;3.83;1.27;;;13.40;99.90;;;;;;5015813;28;20034;-67
2023/03/25 10:56:56;;;;;;;7.50;0.90;;;13.40;99.90;;;;;;4997979;28;20058;-67
2023/03/25 10:59:28;;;;;;;4.15;0.95;;;13.70;99.90;;;;;;5017415;28;20120;-67
2023/03/25 11:01:55;;;;;;;4.03;1.05;;;13.90;99.90;;;;;;5017310;28;20038;-67
2023/03/25 11:04:27;;;;;;;3.88;1.10;;;13.80;99.90;;;;;;5015805;28;20030;-67
2023/03/25 11:06:56;;;;;;;7.05;1.48;;;13.60;99.90;;;;;;5014367;28;20034;-69
2023/03/25 11:09:24;;;;;;;6.13;1.30;;;13.20;99.90;;;;;;5016285;28;20034;-68
2023/03/25 11:11:51;;;;;;;6.53;1.23;;;12.80;99.90;;;;;;4999683;28;20033;-68
2023/03/25 11:14:23;;;;;;;4.55;1.10;;;12.50;99.90;;;;;;5003917;28;20054;-67
2023/03/25 11:16:56;;;;;;;7.25;0.93;;;12.20;99.90;;;;;;4994669;28;20033;-67
2023/03/25 11:19:39;;;;;;;7.65;1.25;;;12.10;99.90;;;;;;4994125;28;20081;-67
2023/03/25 11:22:19;;;;;;;3.15;1.27;;;12.20;99.90;;;;;;4993796;28;20034;-67
2023/03/25 11:24:53;;;;;;;2.63;0.95;;;12.30;99.90;;;;;;5007880;28;20038;-67
2023/03/25 11:27:24;;;;;;;3.22;0.63;;;12.30;99.90;;;;;;5056534;28;20028;-67
2023/03/25 11:29:52;;;;;;;6.50;0.90;;;12.60;99.90;;;;;;5049112;28;20139;-67
2023/03/25 11:32:24;;;;;;;2.45;0.75;;;12.60;99.90;;;;;;5074640;28;20040;-68
2023/03/25 11:34:50;;;;;;;4.60;0.85;;;12.60;99.90;;;;;;5066113;28;20017;-67
2023/03/25 11:37:19;;;;;;;7.20;1.15;;;12.80;99.90;;;;;;5074570;28;20487;-67
2023/03/25 11:39:50;;;;;;;3.45;0.82;;;12.90;99.90;;;;;;5074329;28;20016;-67
2023/03/25 11:42:15;;;;;;;2.20;1.05;;;13.00;99.90;;;;;;5058745;28;20043;-67
2023/03/25 11:44:49;;;;;;;4.73;0.77;;;13.00;99.90;;;;;;5073836;28;20477;-67
2023/03/25 11:47:22;;;;;;;1.00;0.47;;;12.90;99.90;;;;;;5056302;28;20032;-67
2023/03/25 11:49:48;;;;;;;4.05;1.00;;;12.90;99.90;;;;;;5074246;28;20025;-67
2023/03/25 11:52:19;;;;;;;2.50;0.73;;;12.90;99.90;;;;;;5073994;28;20032;-68
2023/03/25 11:54:45;;;;;;;2.28;0.45;;;13.20;99.90;;;;;;5053805;28;20033;-68
2023/03/25 11:57:17;;;;;;;3.55;0.50;;;13.30;99.90;;;;;;5053906;28;20023;-67
2023/03/25 11:59:47;;;;;;;5.88;0.50;;;13.40;99.90;;;;;;5052800;28;20033;-68
2023/03/25 12:02:23;;;;;;;3.13;0.52;;;13.50;99.90;;;;;;5054544;28;20025;-68
2023/03/25 12:05:03;;;;;;;3.22;0.50;;;13.50;99.90;;;;;;5052765;28;20028;-69
2023/03/25 12:07:39;;;;;;;1.98;0.65;;;13.50;99.90;;;;;;5053380;28;20032;-69
2023/03/25 12:10:06;;;;;;;2.85;0.63;;;13.40;99.90;;;;;;5035862;28;20029;-69
2023/03/25 12:12:47;;;;;;;2.72;0.52;;;13.40;99.90;;;;;;5069891;28;20028;-69
2023/03/25 12:15:40;;;;;;;2.50;0.80;;;13.30;99.90;;;;;;5073430;28;20086;-68
2023/03/25 12:18:29;;;;;;;2.58;0.80;;;13.40;99.90;;;;;;5073591;28;20021;-68
2023/03/25 12:21:14;;;;;;;3.67;0.60;;;13.50;99.90;;;;;;5072107;28;20068;-68
2023/03/25 12:24:15;;;;;;;2.28;0.80;;;13.50;99.90;;;;;;5060149;28;20469;-67
2023/03/25 12:27:07;;;;;;;4.65;0.70;;;13.70;99.90;;;;;;5073003;28;20485;-67
2023/03/25 12:29:45;;;;;;;2.40;0.93;;;13.80;99.90;;;;;;5061122;28;20029;-67
2023/03/25 12:32:22;;;;;;;2.95;0.73;;;13.80;99.90;;;;;;5062982;28;20028;-68
2023/03/25 12:35:13;;;;;;;1.98;0.70;;;13.90;99.90;;;;;;5072461;28;20054;-66
2023/03/25 12:38:03;;;;;;;2.85;0.60;;;14.00;99.90;;;;;;5055874;28;20025;-69
2023/03/25 12:40:44;;;;;;;5.13;0.80;;;14.20;99.90;;;;;;5055760;28;20024;-68
2023/03/25 12:43:16;;;;;;;4.00;0.90;;;14.10;99.90;;;;;;5074074;28;20024;-66
2023/03/25 12:45:42;;;;;;;1.80;0.50;;;14.10;99.90;;;;;;5073282;28;20040;-67
2023/03/25 12:48:18;;;;;;;2.80;0.53;;;14.20;99.90;;;;;;5073210;28;20024;-68
2023/03/25 12:51:19;;;;;;;7.05;1.05;;;14.20;99.50;;;;;;5055057;28;20024;-68
2023/03/25 12:54:27;;;;;;;2.50;0.65;;;14.30;98.70;;;;;;5051760;28;20029;-70
2023/03/25 12:57:12;;;;;;;5.10;1.52;;;14.50;97.80;;;;;;5056494;28;20032;-69
2023/03/25 13:00:06;;;;;;;2.33;0.60;;;14.60;96.80;;;;;;5061665;28;20437;-69
2023/03/25 13:03:11;;;;;;;4.47;0.80;;;14.70;94.90;;;;;;5054194;28;20024;-69
2023/03/25 13:05:46;;;;;;;5.88;0.98;;;14.90;94.10;;;;;;5053234;28;20021;-69
2023/03/25 13:08:19;;;;;;;4.28;0.55;;;14.90;93.70;;;;;;5053455;28;20473;-69
2023/03/25 13:10:49;;;;;;;4.13;0.88;;;15.00;93.60;;;;;;5034779;28;20116;-70
2023/03/25 13:13:19;;;;;;;3.47;1.17;;;15.00;93.30;;;;;;5052793;28;20025;-70
2023/03/25 13:16:06;;;;;;;2.00;0.50;;;15.00;93.30;;;;;;5034921;28;20025;-69